This is the latest recevied weather packets stored in our database for station/object EA1JVZ-1. If no packets are shown the sender has not sent any weather packets the latest 10 day(s).
| Time | Temp. | Humidity | Pressure | Rain* | Wind** | Luminosity | Snow |
|---|---|---|---|---|---|---|---|
| 1777493153 | 12.22° C | 49% | 1021.9 hPa | - | - | - | - |
| 1777492253 | 12.78° C | 50% | 1021.9 hPa | - | - | - | - |
| 1777491354 | 13.33° C | 52% | 1021.5 hPa | - | - | - | - |
| 1777490453 | 13.89° C | 52% | 1021.1 hPa | - | - | - | - |
| 1777489554 | 16.11° C | 50% | 1020.7 hPa | - | - | - | - |
| 1777488656 | 18.89° C | 46% | 1020.7 hPa | - | - | - | - |
| 1777487753 | 22.22° C | 42% | 1020.5 hPa | - | - | - | - |
| 1777486855 | 20° C | 43% | 1020.4 hPa | - | - | - | - |
| 1777485952 | 16.11° C | 47% | 1020.2 hPa | - | - | - | - |
| 1777485053 | 12.22° C | 51% | 1020.1 hPa | - | - | - | - |
| 1777484152 | 12.22° C | 52% | 1020.2 hPa | - | - | - | - |
| 1777483251 | 12.22° C | 54% | 1020.3 hPa | - | - | - | - |
| 1777482352 | 13.89° C | 54% | 1020.1 hPa | - | - | - | - |
| 1777480554 | 13.89° C | 53% | 1019.7 hPa | - | - | - | - |
| 1777479651 | 13.89° C | 54% | 1019.7 hPa | - | - | - | - |
| 1777478751 | 15° C | 56% | 1019.7 hPa | - | - | - | - |
| 1777477853 | 17.22° C | 53% | 1020.2 hPa | - | - | - | - |
| 1777476953 | 19.44° C | 50% | 1019.6 hPa | - | - | - | - |
| 1777475152 | 24.44° C | 42% | 1019.5 hPa | - | - | - | - |
| 1777474250 | 16.11° C | 51% | 1019.6 hPa | - | - | - | - |
| 1777473350 | 13.89° C | 52% | 1020 hPa | - | - | - | - |
| 1777472451 | 14.44° C | 51% | 1019.7 hPa | - | - | - | - |
| 1777471553 | 14.44° C | 52% | 1019.7 hPa | - | - | - | - |
| 1777470654 | 14.44° C | 52% | 1019.6 hPa | - | - | - | - |
| 1777469749 | 13.33° C | 56% | 1020 hPa | - | - | - | - |
* Rain since midnight (hover to see other rain measurements)
** Current wind speed in m/s (hover to see current wind gust speed)